Time;durP1;ratioP1;P1;durP2;ratioP2;P2;SDS_P1;SDS_P2;PMS_P1;PMS_P2;Temp;Humidity;BMP_temperature;BMP_pressure;BME280_temperature;BME280_humidity;BME280_pressure;Samples;Min_cycle;Max_cycle;Signal;HPM_P1;HPM_P2
2023/06/28 00:01:37;;;;;;;24.65;10.88;;;;;;;;;;5048195;28;20060;-64
2023/06/28 00:04:05;;;;;;;24.65;10.93;;;;;;;;;;5024667;28;20987;-64
2023/06/28 00:06:37;;;;;;;21.08;10.38;;;;;;;;;;5043683;28;20127;-64
2023/06/28 00:09:04;;;;;;;19.03;8.43;;;;;;;;;;5032994;28;20577;-63
2023/06/28 00:11:32;;;;;;;20.63;9.68;;;;;;;;;;5043743;28;20079;-63
2023/06/28 00:14:00;;;;;;;18.80;8.93;;;;;;;;;;5035935;28;20040;-63
2023/06/28 00:16:30;;;;;;;21.40;9.18;;;;;;;;;;5039597;28;20059;-63
2023/06/28 00:19:00;;;;;;;19.75;8.82;;;;;;;;;;5023331;28;20421;-64
2023/06/28 00:21:28;;;;;;;26.13;10.33;;;;;;;;;;5044358;28;20165;-63
2023/06/28 00:23:56;;;;;;;21.60;9.27;;;;;;;;;;5026421;28;20128;-63
2023/06/28 00:26:24;;;;;;;20.00;9.43;;;;;;;;;;5020872;28;20440;-64
2023/06/28 00:28:52;;;;;;;23.70;9.40;;;;;;;;;;5031126;28;20029;-63
2023/06/28 00:31:20;;;;;;;20.60;9.80;;;;;;;;;;5043533;28;20037;-64
2023/06/28 00:33:49;;;;;;;18.20;9.47;;;;;;;;;;5037255;28;20044;-63
2023/06/28 00:36:17;;;;;;;20.40;8.52;;;;;;;;;;5028484;28;20045;-64
2023/06/28 00:38:44;;;;;;;18.40;8.40;;;;;;;;;;5012494;28;20580;-64
2023/06/28 00:41:13;;;;;;;17.90;7.68;;;;;;;;;;5044086;28;20040;-64
2023/06/28 00:43:42;;;;;;;15.88;7.45;;;;;;;;;;5044421;28;20051;-63
2023/06/28 00:46:10;;;;;;;15.53;6.90;;;;;;;;;;5032838;28;20072;-64
2023/06/28 00:48:38;;;;;;;16.30;6.57;;;;;;;;;;5037718;28;20053;-63
2023/06/28 00:51:07;;;;;;;12.68;6.68;;;;;;;;;;5029167;28;20049;-64
2023/06/28 00:53:35;;;;;;;15.27;7.22;;;;;;;;;;5046965;28;20048;-63
2023/06/28 00:56:03;;;;;;;16.88;6.78;;;;;;;;;;5023141;28;20055;-63
2023/06/28 00:58:31;;;;;;;14.10;7.27;;;;;;;;;;5038508;28;20045;-62
2023/06/28 01:00:59;;;;;;;15.35;7.22;;;;;;;;;;5015437;28;20059;-63
2023/06/28 01:03:27;;;;;;;15.00;7.68;;;;;;;;;;5033896;28;20051;-66
2023/06/28 01:05:57;;;;;;;15.73;7.85;;;;;;;;;;5021124;28;20135;-63
2023/06/28 01:08:27;;;;;;;14.85;7.10;;;;;;;;;;4990055;28;20055;-64
2023/06/28 01:10:56;;;;;;;16.03;7.77;;;;;;;;;;5029295;28;20037;-64
2023/06/28 01:13:24;;;;;;;19.02;7.07;;;;;;;;;;5041244;28;20115;-63
2023/06/28 01:15:52;;;;;;;16.20;7.97;;;;;;;;;;5028794;28;20052;-63
2023/06/28 01:18:21;;;;;;;18.70;8.02;;;;;;;;;;5027192;28;20041;-63
2023/06/28 01:20:50;;;;;;;18.65;8.40;;;;;;;;;;5030288;28;20106;-63
2023/06/28 01:23:19;;;;;;;18.27;8.43;;;;;;;;;;5018734;28;20043;-64
2023/06/28 01:25:47;;;;;;;18.45;8.90;;;;;;;;;;5019194;28;20032;-64
2023/06/28 01:28:15;;;;;;;18.23;8.68;;;;;;;;;;5034638;28;20049;-63
2023/06/28 01:30:43;;;;;;;18.40;9.13;;;;;;;;;;5029182;28;20036;-64
2023/06/28 01:33:11;;;;;;;18.23;8.95;;;;;;;;;;5035165;28;20045;-61
2023/06/28 01:35:41;;;;;;;17.77;8.87;;;;;;;;;;5028192;28;20037;-64
2023/06/28 01:38:11;;;;;;;17.58;8.27;;;;;;;;;;5016775;28;20690;-63
2023/06/28 01:40:40;;;;;;;25.25;10.00;;;;;;;;;;5040362;28;20086;-64
2023/06/28 01:43:08;;;;;;;19.60;8.88;;;;;;;;;;5032912;28;20115;-65
2023/06/28 01:45:36;;;;;;;20.15;10.52;;;;;;;;;;5035773;28;20521;-64
2023/06/28 01:48:04;;;;;;;21.23;9.67;;;;;;;;;;4987653;28;20041;-64
2023/06/28 01:50:32;;;;;;;20.23;9.90;;;;;;;;;;5025582;28;20528;-64
2023/06/28 01:53:01;;;;;;;21.20;9.70;;;;;;;;;;5034363;28;20050;-64
2023/06/28 01:55:29;;;;;;;22.70;10.10;;;;;;;;;;5033224;28;20204;-65
2023/06/28 01:57:59;;;;;;;20.92;9.43;;;;;;;;;;5028807;28;20076;-64
2023/06/28 02:00:27;;;;;;;20.63;10.23;;;;;;;;;;5012039;28;20434;-64
2023/06/28 02:02:54;;;;;;;22.65;10.85;;;;;;;;;;5030287;28;20057;-64
2023/06/28 02:05:26;;;;;;;22.75;10.82;;;;;;;;;;5007267;28;20052;-64
2023/06/28 02:07:54;;;;;;;23.48;9.68;;;;;;;;;;5029452;28;20487;-64
2023/06/28 02:10:22;;;;;;;23.17;10.63;;;;;;;;;;5030200;28;20059;-64
2023/06/28 02:12:51;;;;;;;20.07;10.80;;;;;;;;;;5039896;28;20351;-60
2023/06/28 02:15:24;;;;;;;20.67;9.85;;;;;;;;;;5028452;28;20433;-65
2023/06/28 02:17:58;;;;;;;21.00;10.57;;;;;;;;;;5023589;28;20075;-63
2023/06/28 02:20:26;;;;;;;22.85;9.90;;;;;;;;;;5020558;28;20834;-64
2023/06/28 02:22:53;;;;;;;22.48;10.20;;;;;;;;;;5025071;28;20060;-64
2023/06/28 02:25:21;;;;;;;21.53;9.77;;;;;;;;;;5040941;28;20060;-64
2023/06/28 02:27:49;;;;;;;23.65;10.35;;;;;;;;;;5025027;28;20414;-64
2023/06/28 02:30:21;;;;;;;19.65;9.82;;;;;;;;;;5027297;28;20059;-64
2023/06/28 02:32:50;;;;;;;21.70;9.85;;;;;;;;;;5038352;28;20045;-63
2023/06/28 02:35:18;;;;;;;22.73;10.90;;;;;;;;;;5011558;28;20398;-65
2023/06/28 02:37:46;;;;;;;24.37;10.20;;;;;;;;;;5023253;28;20044;-65
2023/06/28 02:40:14;;;;;;;23.65;10.25;;;;;;;;;;5024514;28;20028;-65
2023/06/28 02:42:42;;;;;;;20.52;10.07;;;;;;;;;;5030518;28;20060;-66
2023/06/28 02:45:11;;;;;;;22.17;10.70;;;;;;;;;;5026010;28;20045;-60
2023/06/28 02:47:39;;;;;;;22.92;10.55;;;;;;;;;;5034162;28;20064;-64
2023/06/28 02:50:09;;;;;;;18.43;10.07;;;;;;;;;;5004080;28;20053;-64
2023/06/28 02:52:37;;;;;;;21.60;10.32;;;;;;;;;;5051308;28;20139;-65
2023/06/28 02:55:07;;;;;;;20.65;9.57;;;;;;;;;;5023605;28;20065;-64
2023/06/28 02:57:36;;;;;;;21.50;9.70;;;;;;;;;;5038564;28;20036;-64
2023/06/28 03:00:05;;;;;;;22.45;9.85;;;;;;;;;;5022299;28;21782;-60
2023/06/28 03:02:33;;;;;;;20.30;9.43;;;;;;;;;;5037005;28;20061;-63
2023/06/28 03:05:01;;;;;;;20.63;9.43;;;;;;;;;;5042034;28;20051;-66
2023/06/28 03:07:30;;;;;;;20.55;9.15;;;;;;;;;;5031939;28;20033;-66
2023/06/28 03:09:58;;;;;;;20.27;9.68;;;;;;;;;;5009582;28;20566;-66
2023/06/28 03:12:25;;;;;;;16.70;8.38;;;;;;;;;;5032266;28;20041;-65
2023/06/28 03:14:53;;;;;;;17.23;8.17;;;;;;;;;;5045877;28;20462;-66
2023/06/28 03:17:21;;;;;;;17.95;8.60;;;;;;;;;;5027420;28;20068;-66
2023/06/28 03:19:50;;;;;;;17.80;8.88;;;;;;;;;;5038018;28;20403;-66
2023/06/28 03:22:18;;;;;;;22.60;8.80;;;;;;;;;;4988073;28;20036;-63
2023/06/28 03:24:47;;;;;;;17.77;8.48;;;;;;;;;;5024105;28;20043;-64
2023/06/28 03:27:15;;;;;;;19.47;8.97;;;;;;;;;;5012877;28;20033;-64
2023/06/28 03:29:43;;;;;;;18.08;8.18;;;;;;;;;;5050707;28;20552;-63
2023/06/28 03:32:11;;;;;;;18.63;8.55;;;;;;;;;;5022914;28;20056;-64
2023/06/28 03:34:38;;;;;;;18.38;8.25;;;;;;;;;;5045434;28;20076;-63
2023/06/28 03:37:07;;;;;;;14.30;7.55;;;;;;;;;;5026362;28;20472;-63
2023/06/28 03:39:34;;;;;;;17.53;8.30;;;;;;;;;;5042862;28;20056;-64
2023/06/28 03:42:04;;;;;;;16.70;7.97;;;;;;;;;;5004740;28;20483;-63
2023/06/28 03:44:31;;;;;;;16.20;8.15;;;;;;;;;;5036746;28;20059;-63
2023/06/28 03:46:59;;;;;;;18.42;8.10;;;;;;;;;;5025889;28;20126;-63
2023/06/28 03:49:27;;;;;;;14.40;7.35;;;;;;;;;;5033829;28;20122;-63
2023/06/28 03:51:55;;;;;;;18.70;8.30;;;;;;;;;;5026113;28;20525;-63
2023/06/28 03:54:22;;;;;;;16.60;8.15;;;;;;;;;;5039958;28;20044;-64
2023/06/28 03:56:50;;;;;;;16.60;8.55;;;;;;;;;;5034883;28;20036;-65
2023/06/28 03:59:19;;;;;;;17.83;8.15;;;;;;;;;;5034509;28;20322;-65
2023/06/28 04:01:47;;;;;;;17.50;9.00;;;;;;;;;;5034339;28;20055;-65
2023/06/28 04:04:15;;;;;;;17.83;8.30;;;;;;;;;;5045263;28;20056;-65
2023/06/28 04:06:47;;;;;;;19.90;9.18;;;;;;;;;;5030473;28;20056;-65
2023/06/28 04:09:15;;;;;;;22.10;9.23;;;;;;;;;;5030851;28;20068;-66
2023/06/28 04:11:43;;;;;;;22.20;9.35;;;;;;;;;;5028726;28;20041;-65
2023/06/28 04:14:11;;;;;;;20.52;8.43;;;;;;;;;;5011249;28;20056;-61
2023/06/28 04:16:40;;;;;;;22.27;9.80;;;;;;;;;;5038097;28;20491;-65
2023/06/28 04:19:08;;;;;;;17.92;8.85;;;;;;;;;;5036050;28;20116;-65
2023/06/28 04:21:36;;;;;;;25.20;9.90;;;;;;;;;;5038205;28;20056;-65
2023/06/28 04:24:05;;;;;;;21.13;9.93;;;;;;;;;;5032733;28;20048;-65
2023/06/28 04:26:33;;;;;;;19.77;9.63;;;;;;;;;;5046465;28;20131;-64
2023/06/28 04:29:00;;;;;;;21.57;9.30;;;;;;;;;;5041494;28;20040;-65
2023/06/28 04:31:30;;;;;;;18.75;8.60;;;;;;;;;;5026678;28;20041;-65
2023/06/28 04:34:01;;;;;;;22.45;9.60;;;;;;;;;;5035995;28;20037;-65
2023/06/28 04:36:28;;;;;;;16.88;9.10;;;;;;;;;;5021812;28;20124;-65
2023/06/28 04:38:56;;;;;;;20.27;9.65;;;;;;;;;;5036876;28;20044;-65
2023/06/28 04:41:24;;;;;;;20.07;9.40;;;;;;;;;;5036494;28;20356;-65
2023/06/28 04:43:54;;;;;;;21.05;9.27;;;;;;;;;;5047436;28;20048;-64
2023/06/28 04:46:22;;;;;;;20.50;10.02;;;;;;;;;;5029736;28;20120;-65
2023/06/28 04:48:51;;;;;;;21.40;10.07;;;;;;;;;;5043169;28;20095;-61
2023/06/28 04:51:21;;;;;;;22.98;10.20;;;;;;;;;;5010684;28;20871;-65
2023/06/28 04:53:49;;;;;;;18.53;9.53;;;;;;;;;;5034354;28;20092;-65
2023/06/28 04:56:18;;;;;;;18.75;9.27;;;;;;;;;;5023417;28;20690;-63
2023/06/28 04:58:45;;;;;;;19.08;9.43;;;;;;;;;;5036127;28;20040;-64
2023/06/28 05:01:13;;;;;;;21.73;10.85;;;;;;;;;;5025470;28;20053;-64
2023/06/28 05:03:41;;;;;;;23.70;10.00;;;;;;;;;;5039762;28;20635;-64
2023/06/28 05:06:10;;;;;;;21.80;10.27;;;;;;;;;;5029772;28;20044;-64
2023/06/28 05:08:39;;;;;;;22.33;9.85;;;;;;;;;;5038578;28;20050;-65
2023/06/28 05:11:07;;;;;;;21.58;11.05;;;;;;;;;;5016220;28;20292;-64
2023/06/28 05:13:35;;;;;;;23.27;9.95;;;;;;;;;;5036334;28;20529;-63
2023/06/28 05:16:03;;;;;;;24.55;11.63;;;;;;;;;;5039968;28;20032;-62
2023/06/28 05:18:30;;;;;;;27.53;10.43;;;;;;;;;;5035234;28;20045;-57
2023/06/28 05:20:59;;;;;;;21.95;9.98;;;;;;;;;;5042674;28;20039;-63
2023/06/28 05:23:27;;;;;;;21.48;9.77;;;;;;;;;;5039783;28;20046;-63
2023/06/28 05:25:56;;;;;;;23.27;10.43;;;;;;;;;;5035867;28;20041;-63
2023/06/28 05:28:25;;;;;;;25.58;10.95;;;;;;;;;;5022290;28;20048;-63
2023/06/28 05:30:53;;;;;;;21.23;10.30;;;;;;;;;;5044550;28;20044;-63
2023/06/28 05:33:21;;;;;;;23.42;10.50;;;;;;;;;;5028332;28;20237;-63
2023/06/28 05:35:49;;;;;;;21.55;10.18;;;;;;;;;;5019773;28;20032;-63
2023/06/28 05:38:17;;;;;;;21.15;9.63;;;;;;;;;;5017852;28;20045;-63
2023/06/28 05:40:45;;;;;;;22.50;9.75;;;;;;;;;;5039996;28;20184;-63
2023/06/28 05:43:14;;;;;;;26.73;9.33;;;;;;;;;;5034064;28;20039;-62
2023/06/28 05:45:42;;;;;;;18.23;9.23;;;;;;;;;;5016182;28;20036;-63
2023/06/28 05:48:11;;;;;;;20.85;9.38;;;;;;;;;;5016830;28;20585;-63
2023/06/28 05:50:39;;;;;;;19.73;9.13;;;;;;;;;;5045423;28;20537;-63
2023/06/28 05:53:10;;;;;;;25.55;10.00;;;;;;;;;;5036614;28;20442;-56
2023/06/28 05:55:38;;;;;;;18.47;8.73;;;;;;;;;;5031143;28;20123;-63
2023/06/28 05:58:06;;;;;;;18.83;8.82;;;;;;;;;;5035479;28;20130;-64
2023/06/28 06:00:35;;;;;;;18.55;8.65;;;;;;;;;;5023596;28;20059;-63
2023/06/28 06:03:03;;;;;;;19.73;8.52;;;;;;;;;;5008365;28;20340;-63
2023/06/28 06:05:31;;;;;;;18.95;8.45;;;;;;;;;;5027753;28;20072;-58
2023/06/28 06:07:59;;;;;;;19.83;8.47;;;;;;;;;;5020798;28;20072;-63
2023/06/28 06:10:26;;;;;;;16.65;8.00;;;;;;;;;;5034953;28;20591;-64
2023/06/28 06:12:54;;;;;;;16.50;7.50;;;;;;;;;;5026507;28;20414;-63
2023/06/28 06:15:22;;;;;;;19.38;7.88;;;;;;;;;;5029109;28;20044;-63
2023/06/28 06:17:51;;;;;;;16.45;8.30;;;;;;;;;;5040506;28;20487;-63
2023/06/28 06:20:19;;;;;;;16.77;7.17;;;;;;;;;;5035620;28;20658;-62
2023/06/28 06:22:47;;;;;;;16.75;8.80;;;;;;;;;;5030293;28;20552;-62
2023/06/28 06:25:16;;;;;;;16.60;8.10;;;;;;;;;;5024957;28;20029;-64
2023/06/28 06:27:44;;;;;;;15.07;7.50;;;;;;;;;;5042551;28;20131;-62
2023/06/28 06:30:13;;;;;;;17.05;7.57;;;;;;;;;;5029583;28;20048;-62
2023/06/28 06:32:41;;;;;;;13.37;7.57;;;;;;;;;;5032986;28;20044;-62
2023/06/28 06:35:10;;;;;;;17.85;8.77;;;;;;;;;;5025782;28;20041;-63
2023/06/28 06:37:38;;;;;;;17.42;7.97;;;;;;;;;;5025922;28;20185;-63
2023/06/28 06:40:06;;;;;;;13.88;7.28;;;;;;;;;;5028228;28;20793;-63
2023/06/28 06:42:34;;;;;;;14.05;7.25;;;;;;;;;;5027101;28;20512;-64
2023/06/28 06:45:02;;;;;;;17.53;7.77;;;;;;;;;;5036050;28;20529;-64
2023/06/28 06:47:29;;;;;;;15.18;7.75;;;;;;;;;;5032818;28;20120;-64
2023/06/28 06:49:57;;;;;;;17.15;7.57;;;;;;;;;;5042764;28;20045;-63
2023/06/28 06:52:27;;;;;;;12.57;6.53;;;;;;;;;;5027588;28;20379;-64
2023/06/28 06:54:55;;;;;;;13.90;6.50;;;;;;;;;;5037249;28;20131;-64
2023/06/28 06:57:23;;;;;;;11.87;6.13;;;;;;;;;;5026198;28;20103;-64
2023/06/28 06:59:50;;;;;;;10.70;5.30;;;;;;;;;;5022823;28;20597;-57
2023/06/28 07:02:19;;;;;;;13.13;6.13;;;;;;;;;;5029904;28;20302;-63
2023/06/28 07:04:47;;;;;;;14.82;6.50;;;;;;;;;;5022506;28;20040;-64
2023/06/28 07:07:15;;;;;;;12.75;5.38;;;;;;;;;;5028166;28;20041;-64
2023/06/28 07:09:44;;;;;;;12.30;5.63;;;;;;;;;;5034962;28;20132;-64
2023/06/28 07:12:11;;;;;;;11.63;5.35;;;;;;;;;;5039758;28;20053;-63
2023/06/28 07:14:40;;;;;;;14.88;5.68;;;;;;;;;;5033604;28;20395;-64
2023/06/28 07:17:09;;;;;;;11.32;5.38;;;;;;;;;;5029009;28;20067;-64
2023/06/28 07:19:37;;;;;;;14.10;6.28;;;;;;;;;;5029738;28;20056;-64
2023/06/28 07:22:06;;;;;;;11.20;4.83;;;;;;;;;;5020257;28;20075;-64
2023/06/28 07:24:34;;;;;;;12.75;5.47;;;;;;;;;;5041684;28;20097;-64
2023/06/28 07:27:04;;;;;;;11.15;5.80;;;;;;;;;;5022309;28;20056;-64
2023/06/28 07:29:32;;;;;;;11.10;5.72;;;;;;;;;;5047223;28;20043;-63
2023/06/28 07:32:00;;;;;;;13.15;5.72;;;;;;;;;;5023608;28;20442;-65
2023/06/28 07:34:27;;;;;;;12.93;5.80;;;;;;;;;;5033872;28;20047;-64
2023/06/28 07:36:55;;;;;;;14.90;5.22;;;;;;;;;;5032273;28;20045;-64
2023/06/28 07:39:23;;;;;;;12.95;6.05;;;;;;;;;;5050065;28;20139;-64
2023/06/28 07:41:51;;;;;;;10.55;4.97;;;;;;;;;;5028101;28;20637;-60
2023/06/28 07:44:22;;;;;;;10.70;5.50;;;;;;;;;;5025622;28;20233;-65
2023/06/28 07:46:49;;;;;;;13.37;5.83;;;;;;;;;;5032562;28;20532;-63
2023/06/28 07:49:17;;;;;;;10.95;5.35;;;;;;;;;;5039807;28;20040;-63
2023/06/28 07:51:45;;;;;;;14.38;6.78;;;;;;;;;;5038075;28;20045;-63
2023/06/28 07:54:13;;;;;;;13.60;5.57;;;;;;;;;;5026444;28;20041;-62
2023/06/28 07:56:54;;;;;;;14.43;4.95;;;;;;;;;;5024758;28;20044;-63
2023/06/28 07:59:24;;;;;;;12.13;5.40;;;;;;;;;;5039283;28;20156;-62
2023/06/28 08:01:55;;;;;;;11.55;5.15;;;;;;;;;;5028188;28;20060;-62
2023/06/28 08:04:28;;;;;;;13.02;6.13;;;;;;;;;;4997094;28;20095;-63
2023/06/28 08:06:56;;;;;;;13.70;5.65;;;;;;;;;;5038516;28;20607;-62
2023/06/28 08:09:24;;;;;;;12.80;6.68;;;;;;;;;;5025758;28;20041;-62
2023/06/28 08:11:52;;;;;;;12.63;6.17;;;;;;;;;;5024409;28;20591;-63
2023/06/28 08:14:20;;;;;;;15.15;6.45;;;;;;;;;;5030216;28;20042;-62
2023/06/28 08:16:49;;;;;;;11.90;5.75;;;;;;;;;;5026526;28;20242;-63
2023/06/28 08:19:17;;;;;;;12.32;5.88;;;;;;;;;;4988158;28;20972;-63
2023/06/28 08:21:44;;;;;;;16.50;6.57;;;;;;;;;;4999641;28;20045;-63
2023/06/28 08:24:12;;;;;;;15.17;6.47;;;;;;;;;;5001710;28;20045;-63
2023/06/28 08:26:40;;;;;;;18.90;7.63;;;;;;;;;;5005596;28;20248;-62
2023/06/28 08:29:10;;;;;;;15.07;6.75;;;;;;;;;;5010166;28;20045;-63
2023/06/28 08:31:38;;;;;;;15.60;7.30;;;;;;;;;;5003674;28;20069;-63
2023/06/28 08:34:07;;;;;;;14.75;7.38;;;;;;;;;;5016186;28;20618;-63
2023/06/28 08:36:35;;;;;;;13.40;6.37;;;;;;;;;;5011323;28;20492;-62
2023/06/28 08:39:03;;;;;;;13.90;7.00;;;;;;;;;;5017503;28;20044;-62
2023/06/28 08:41:31;;;;;;;14.25;6.72;;;;;;;;;;5008251;28;20072;-56
2023/06/28 08:44:00;;;;;;;15.43;6.90;;;;;;;;;;5020666;28;20533;-62
2023/06/28 08:46:29;;;;;;;13.05;6.15;;;;;;;;;;5007358;28;20029;-62
2023/06/28 08:48:59;;;;;;;11.93;5.93;;;;;;;;;;5020181;28;20040;-62
2023/06/28 08:51:33;;;;;;;12.48;6.07;;;;;;;;;;4994070;28;20419;-62
2023/06/28 08:54:02;;;;;;;13.02;6.32;;;;;;;;;;5007073;28;20071;-63
2023/06/28 08:56:29;;;;;;;16.08;6.85;;;;;;;;;;5020082;28;20059;-61
2023/06/28 08:58:58;;;;;;;14.02;6.88;;;;;;;;;;5037765;28;20033;-62
2023/06/28 09:01:27;;;;;;;17.53;7.80;;;;;;;;;;5028919;28;20053;-62
2023/06/28 09:03:55;;;;;;;16.73;8.82;;;;;;;;;;5044056;28;20048;-62
2023/06/28 09:06:23;;;;;;;15.73;7.85;;;;;;;;;;5018876;28;20029;-62
2023/06/28 09:08:52;;;;;;;18.55;7.93;;;;;;;;;;5014853;28;20487;-62
2023/06/28 09:11:20;;;;;;;15.98;7.88;;;;;;;;;;5033210;28;20189;-63
2023/06/28 09:13:48;;;;;;;17.93;7.93;;;;;;;;;;5044839;28;20126;-62
2023/06/28 09:16:16;;;;;;;14.80;7.28;;;;;;;;;;5044105;28;20168;-62
2023/06/28 09:18:44;;;;;;;18.60;7.63;;;;;;;;;;5025103;28;20052;-63
2023/06/28 09:21:12;;;;;;;17.27;8.25;;;;;;;;;;5038966;28;20408;-62
2023/06/28 09:23:40;;;;;;;19.50;8.50;;;;;;;;;;5039837;28;20036;-62
2023/06/28 09:26:12;;;;;;;15.77;7.83;;;;;;;;;;5035699;28;20041;-63
2023/06/28 09:28:42;;;;;;;16.23;7.28;;;;;;;;;;5028766;28;20040;-62
2023/06/28 09:31:09;;;;;;;16.45;7.53;;;;;;;;;;5042135;28;20068;-65
2023/06/28 09:33:37;;;;;;;15.52;7.85;;;;;;;;;;5004936;28;20049;-62
2023/06/28 09:36:05;;;;;;;12.73;6.72;;;;;;;;;;5047370;28;20044;-62
2023/06/28 09:38:33;;;;;;;15.43;6.87;;;;;;;;;;5034347;28;20122;-61
2023/06/28 09:41:03;;;;;;;14.02;7.47;;;;;;;;;;5027750;28;20478;-62
2023/06/28 09:43:33;;;;;;;15.55;7.78;;;;;;;;;;5024368;28;20036;-61
2023/06/28 09:46:10;;;;;;;14.50;7.40;;;;;;;;;;5029424;28;20045;-62
2023/06/28 09:48:42;;;;;;;14.50;6.63;;;;;;;;;;5025196;28;20040;-62
2023/06/28 09:51:10;;;;;;;15.40;8.47;;;;;;;;;;5027320;28;20132;-62
2023/06/28 09:53:48;;;;;;;17.23;8.45;;;;;;;;;;5039253;28;20051;-63
2023/06/28 09:56:18;;;;;;;15.85;8.07;;;;;;;;;;5039064;28;20090;-64
2023/06/28 09:58:48;;;;;;;15.65;7.38;;;;;;;;;;5023755;28;20082;-63
2023/06/28 10:01:16;;;;;;;17.38;8.05;;;;;;;;;;5028801;28;20041;-62
2023/06/28 10:03:45;;;;;;;15.30;7.40;;;;;;;;;;5041080;28;20127;-63
2023/06/28 10:06:14;;;;;;;14.95;7.85;;;;;;;;;;5034981;28;21962;-63
2023/06/28 10:08:42;;;;;;;11.40;6.03;;;;;;;;;;5014275;28;20683;-63
2023/06/28 10:11:13;;;;;;;12.00;6.65;;;;;;;;;;5013079;28;20042;-64
2023/06/28 10:13:41;;;;;;;15.35;7.50;;;;;;;;;;5036781;28;20131;-64
2023/06/28 10:16:14;;;;;;;18.90;8.73;;;;;;;;;;5037373;28;20677;-62
2023/06/28 10:18:42;;;;;;;14.77;7.70;;;;;;;;;;5034652;28;20120;-62
2023/06/28 10:21:11;;;;;;;15.48;7.68;;;;;;;;;;5040697;28;20071;-63
2023/06/28 10:23:39;;;;;;;14.70;8.30;;;;;;;;;;5021699;28;20045;-63
2023/06/28 10:26:07;;;;;;;15.65;8.23;;;;;;;;;;5049969;28;20053;-63
2023/06/28 10:28:35;;;;;;;17.00;8.77;;;;;;;;;;5018904;28;20498;-62
2023/06/28 10:31:04;;;;;;;16.65;8.65;;;;;;;;;;5010476;28;20049;-62
2023/06/28 10:33:36;;;;;;;14.13;8.45;;;;;;;;;;5023040;28;20105;-62
2023/06/28 10:36:04;;;;;;;14.40;8.38;;;;;;;;;;5038568;28;20037;-62
2023/06/28 10:38:32;;;;;;;13.27;7.05;;;;;;;;;;5022708;28;20040;-62
2023/06/28 10:41:01;;;;;;;15.83;8.20;;;;;;;;;;5029719;28;20033;-63
2023/06/28 10:43:29;;;;;;;13.15;7.70;;;;;;;;;;5029548;28;20051;-63
2023/06/28 10:46:00;;;;;;;14.38;7.95;;;;;;;;;;5027230;28;20489;-62
2023/06/28 10:48:28;;;;;;;17.00;7.82;;;;;;;;;;5021261;28;20090;-63
2023/06/28 10:51:00;;;;;;;16.92;8.15;;;;;;;;;;5010521;28;20101;-63
2023/06/28 10:53:28;;;;;;;14.40;7.80;;;;;;;;;;5029906;28;20059;-63
2023/06/28 10:56:07;;;;;;;13.98;7.68;;;;;;;;;;5038555;28;20102;-63
2023/06/28 10:58:37;;;;;;;15.80;8.52;;;;;;;;;;5036874;28;20526;-63
2023/06/28 11:01:09;;;;;;;13.98;6.95;;;;;;;;;;5036814;28;20114;-63
2023/06/28 11:03:37;;;;;;;18.90;9.70;;;;;;;;;;5032901;28;20041;-63
2023/06/28 11:06:07;;;;;;;15.47;8.03;;;;;;;;;;5004960;28;20118;-63
2023/06/28 11:08:40;;;;;;;15.88;8.25;;;;;;;;;;5020353;28;20473;-65
2023/06/28 11:11:09;;;;;;;13.82;7.70;;;;;;;;;;5040227;28;20343;-63
2023/06/28 11:13:44;;;;;;;14.25;8.07;;;;;;;;;;5036866;28;20056;-63
2023/06/28 11:16:13;;;;;;;15.48;8.07;;;;;;;;;;5016015;28;20051;-62
2023/06/28 11:18:41;;;;;;;13.87;7.17;;;;;;;;;;5045208;28;20051;-62
2023/06/28 11:21:15;;;;;;;16.88;8.35;;;;;;;;;;5041661;28;20040;-62
2023/06/28 11:23:43;;;;;;;16.48;8.18;;;;;;;;;;5033593;28;20207;-62
2023/06/28 11:26:13;;;;;;;14.55;8.60;;;;;;;;;;5049913;28;20127;-61
2023/06/28 11:28:47;;;;;;;14.07;8.00;;;;;;;;;;5025356;28;20120;-62
2023/06/28 11:31:16;;;;;;;16.43;8.33;;;;;;;;;;5032574;28;20028;-63
2023/06/28 11:33:45;;;;;;;15.25;8.07;;;;;;;;;;5029071;28;20045;-63
2023/06/28 11:36:22;;;;;;;13.00;7.75;;;;;;;;;;5034801;28;20400;-62
2023/06/28 11:38:50;;;;;;;15.07;8.50;;;;;;;;;;5039642;28;20529;-63
2023/06/28 11:41:18;;;;;;;16.48;7.95;;;;;;;;;;5026226;28;20512;-63
2023/06/28 11:43:46;;;;;;;15.13;8.40;;;;;;;;;;5023666;28;20045;-63
2023/06/28 11:46:17;;;;;;;17.20;7.85;;;;;;;;;;5032107;28;20374;-62
2023/06/28 11:48:45;;;;;;;18.25;8.85;;;;;;;;;;5038353;28;20483;-63
2023/06/28 11:51:13;;;;;;;15.60;9.40;;;;;;;;;;5010511;28;20259;-62
2023/06/28 11:53:43;;;;;;;17.63;9.35;;;;;;;;;;5041666;28;20044;-62
2023/06/28 11:56:11;;;;;;;18.67;9.20;;;;;;;;;;5028990;28;20067;-56
2023/06/28 11:58:41;;;;;;;16.85;8.55;;;;;;;;;;5036870;28;20037;-62
2023/06/28 12:01:19;;;;;;;18.38;9.70;;;;;;;;;;5014328;28;20045;-63
2023/06/28 12:03:47;;;;;;;17.05;8.43;;;;;;;;;;5010548;28;20545;-63
2023/06/28 12:06:15;;;;;;;17.00;9.15;;;;;;;;;;5020106;28;20789;-63
2023/06/28 12:08:44;;;;;;;17.27;9.37;;;;;;;;;;5030555;28;20056;-63
2023/06/28 12:11:13;;;;;;;15.38;8.55;;;;;;;;;;5029633;28;20036;-63
2023/06/28 12:13:41;;;;;;;17.08;9.38;;;;;;;;;;5035147;28;20321;-63
2023/06/28 12:16:16;;;;;;;15.32;8.68;;;;;;;;;;5032663;28;20047;-63
2023/06/28 12:18:54;;;;;;;17.15;9.52;;;;;;;;;;5028194;28;20071;-63
2023/06/28 12:21:22;;;;;;;17.93;9.53;;;;;;;;;;5017198;28;20045;-63
2023/06/28 12:23:52;;;;;;;17.77;9.15;;;;;;;;;;5026912;28;20049;-63
2023/06/28 12:26:22;;;;;;;16.40;9.10;;;;;;;;;;5027861;28;20044;-62
2023/06/28 12:28:50;;;;;;;14.75;8.88;;;;;;;;;;5025701;28;20051;-61
2023/06/28 12:31:18;;;;;;;14.05;8.80;;;;;;;;;;5021366;28;20410;-62
2023/06/28 12:33:52;;;;;;;20.40;9.20;;;;;;;;;;5019235;28;20542;-62
2023/06/28 12:36:20;;;;;;;14.02;7.32;;;;;;;;;;5031538;28;20056;-63
2023/06/28 12:38:51;;;;;;;16.27;9.27;;;;;;;;;;5042485;28;20047;-62
2023/06/28 12:41:20;;;;;;;14.02;8.20;;;;;;;;;;5038188;28;20201;-63
2023/06/28 12:43:55;;;;;;;16.13;8.80;;;;;;;;;;5032128;28;20495;-63
2023/06/28 12:46:23;;;;;;;16.70;9.67;;;;;;;;;;5028392;28;20094;-62
2023/06/28 12:48:52;;;;;;;17.40;9.65;;;;;;;;;;5037438;28;20217;-63
2023/06/28 12:51:26;;;;;;;14.88;8.43;;;;;;;;;;5025715;28;20044;-63
2023/06/28 12:53:53;;;;;;;18.52;10.40;;;;;;;;;;5031765;28;20045;-63
2023/06/28 12:56:22;;;;;;;17.27;9.98;;;;;;;;;;5009512;28;20041;-63
2023/06/28 12:58:50;;;;;;;18.43;8.63;;;;;;;;;;5038408;28;20036;-63
2023/06/28 13:01:18;;;;;;;16.00;9.02;;;;;;;;;;5014373;28;20056;-63
2023/06/28 13:03:46;;;;;;;15.90;7.95;;;;;;;;;;5031670;28;20544;-63
2023/06/28 13:06:14;;;;;;;15.20;8.02;;;;;;;;;;5012582;28;20566;-62
2023/06/28 13:08:42;;;;;;;18.50;9.07;;;;;;;;;;5034082;28;20033;-62
2023/06/28 13:11:11;;;;;;;14.53;7.77;;;;;;;;;;5027090;28;20041;-63
2023/06/28 13:13:40;;;;;;;20.35;8.82;;;;;;;;;;5033188;28;20044;-63
2023/06/28 13:16:08;;;;;;;14.52;8.07;;;;;;;;;;5018173;28;20095;-63
2023/06/28 13:18:36;;;;;;;15.55;8.13;;;;;;;;;;5033558;28;20215;-62
2023/06/28 13:21:04;;;;;;;16.17;8.23;;;;;;;;;;5005355;28;20061;-62
2023/06/28 13:23:31;;;;;;;14.97;8.10;;;;;;;;;;5039099;28;20044;-61
2023/06/28 13:25:59;;;;;;;18.35;9.68;;;;;;;;;;5018544;28;20048;-63
2023/06/28 13:28:27;;;;;;;16.40;8.98;;;;;;;;;;5034946;28;20042;-63
2023/06/28 13:30:56;;;;;;;15.88;9.10;;;;;;;;;;5034574;28;20243;-63
2023/06/28 13:33:28;;;;;;;15.32;8.40;;;;;;;;;;5023885;28;20102;-63
2023/06/28 13:35:56;;;;;;;15.63;8.87;;;;;;;;;;5029244;28;20144;-62
2023/06/28 13:38:24;;;;;;;17.58;9.43;;;;;;;;;;5033401;28;20489;-63
2023/06/28 13:40:52;;;;;;;16.75;9.77;;;;;;;;;;5037902;28;20040;-63
2023/06/28 13:43:19;;;;;;;16.98;9.13;;;;;;;;;;5035249;28;20064;-63
2023/06/28 13:45:47;;;;;;;16.70;8.73;;;;;;;;;;5040894;28;20536;-62
2023/06/28 13:48:16;;;;;;;15.00;8.20;;;;;;;;;;4995587;28;20043;-63
2023/06/28 13:50:44;;;;;;;18.08;8.93;;;;;;;;;;5033542;28;20036;-63
2023/06/28 13:53:12;;;;;;;16.95;9.55;;;;;;;;;;5005026;28;20488;-63
2023/06/28 13:55:42;;;;;;;17.83;9.65;;;;;;;;;;5036703;28;22111;-62
2023/06/28 13:58:10;;;;;;;18.55;8.50;;;;;;;;;;5010096;28;21085;-62
2023/06/28 14:00:40;;;;;;;13.13;7.63;;;;;;;;;;5039549;28;20071;-62
2023/06/28 14:03:08;;;;;;;14.57;8.20;;;;;;;;;;5026026;28;20040;-62
2023/06/28 14:05:41;;;;;;;16.92;8.00;;;;;;;;;;5044259;28;20051;-62
2023/06/28 14:08:09;;;;;;;16.67;8.45;;;;;;;;;;5022154;28;20094;-62
2023/06/28 14:10:37;;;;;;;15.13;8.23;;;;;;;;;;5031350;28;20525;-63
2023/06/28 14:13:05;;;;;;;17.13;9.13;;;;;;;;;;5030540;28;20586;-63
2023/06/28 14:15:33;;;;;;;15.38;7.88;;;;;;;;;;5033100;28;20131;-63
2023/06/28 14:18:01;;;;;;;16.17;8.68;;;;;;;;;;5022836;28;20076;-63
2023/06/28 14:20:29;;;;;;;13.85;7.45;;;;;;;;;;5034686;28;20055;-62
2023/06/28 14:22:58;;;;;;;16.30;8.27;;;;;;;;;;5030460;28;20120;-63
2023/06/28 14:25:27;;;;;;;12.60;7.10;;;;;;;;;;5026385;28;20056;-63
2023/06/28 14:27:55;;;;;;;15.82;7.68;;;;;;;;;;5037567;28;20045;-63
2023/06/28 14:30:24;;;;;;;15.85;8.68;;;;;;;;;;5024308;28;20047;-63
2023/06/28 14:32:52;;;;;;;14.82;8.02;;;;;;;;;;5030372;28;20060;-63
2023/06/28 14:35:21;;;;;;;17.67;9.18;;;;;;;;;;5029350;28;20509;-63
2023/06/28 14:37:51;;;;;;;17.73;9.23;;;;;;;;;;5040503;28;20040;-63